Time;durP1;ratioP1;P1;durP2;ratioP2;P2;SDS_P1;SDS_P2;PMS_P1;PMS_P2;Temp;Humidity;BMP_temperature;BMP_pressure;BME280_temperature;BME280_humidity;BME280_pressure;Samples;Min_cycle;Max_cycle;Signal;HPM_P1;HPM_P2
2021/12/06 00:00:25;;;;;;;32.40;21.88;;;2.80;99.90;;;;;;5004350;28;20042;-65
2021/12/06 00:02:54;;;;;;;31.67;21.67;;;2.70;99.90;;;;;;5002338;28;20054;-65
2021/12/06 00:05:22;;;;;;;36.05;21.73;;;2.70;99.90;;;;;;5002477;28;20042;-66
2021/12/06 00:07:47;;;;;;;35.20;23.25;;;2.70;99.90;;;;;;5003374;28;20093;-66
2021/12/06 00:10:13;;;;;;;37.10;22.20;;;2.70;99.90;;;;;;5003895;28;20049;-65
2021/12/06 00:12:41;;;;;;;35.33;22.73;;;2.70;99.90;;;;;;5003570;28;20049;-66
2021/12/06 00:15:07;;;;;;;32.33;21.90;;;2.70;99.90;;;;;;5016373;28;20052;-65
2021/12/06 00:17:32;;;;;;;35.13;22.55;;;2.70;99.90;;;;;;5022798;28;20042;-65
2021/12/06 00:19:58;;;;;;;39.70;23.10;;;2.70;99.90;;;;;;5023370;28;20103;-65
2021/12/06 00:22:24;;;;;;;34.23;23.23;;;2.70;99.90;;;;;;5023280;28;20062;-65
2021/12/06 00:24:52;;;;;;;36.07;23.10;;;2.70;99.90;;;;;;5023171;28;20386;-66
2021/12/06 00:27:17;;;;;;;39.30;24.10;;;2.70;99.90;;;;;;5020751;28;20400;-65
2021/12/06 00:29:44;;;;;;;36.63;23.57;;;2.70;99.90;;;;;;5038268;28;20069;-65
2021/12/06 00:32:10;;;;;;;39.90;25.38;;;2.70;99.90;;;;;;5021669;28;20289;-65
2021/12/06 00:34:38;;;;;;;36.75;23.70;;;2.70;99.90;;;;;;5023100;28;20045;-66
2021/12/06 00:37:23;;;;;;;37.92;24.38;;;2.70;99.90;;;;;;5021791;28;20061;-66
2021/12/06 00:39:54;;;;;;;37.55;24.00;;;2.70;99.90;;;;;;5021236;28;20058;-66
2021/12/06 00:42:22;;;;;;;36.50;23.13;;;2.70;99.90;;;;;;5021254;28;20187;-66
2021/12/06 00:44:48;;;;;;;38.83;22.88;;;2.80;99.90;;;;;;5023047;28;20121;-65
2021/12/06 00:47:14;;;;;;;39.25;24.15;;;2.80;99.90;;;;;;5022755;28;20038;-65
2021/12/06 00:49:41;;;;;;;35.97;24.23;;;2.80;99.90;;;;;;5021083;28;20038;-65
2021/12/06 00:52:07;;;;;;;40.72;24.85;;;2.80;99.90;;;;;;5021313;28;20489;-65
2021/12/06 00:54:35;;;;;;;37.20;23.77;;;2.80;99.90;;;;;;5022860;28;20050;-66
2021/12/06 00:57:08;;;;;;;35.33;23.60;;;2.80;99.90;;;;;;5022462;28;20034;-66
2021/12/06 00:59:36;;;;;;;37.33;23.67;;;2.80;99.90;;;;;;5022470;28;20050;-65
2021/12/06 01:02:03;;;;;;;37.58;24.33;;;2.80;99.90;;;;;;5022293;28;20046;-65
2021/12/06 01:04:32;;;;;;;37.65;24.23;;;2.70;99.90;;;;;;5023138;28;20041;-65
2021/12/06 01:06:58;;;;;;;36.42;23.58;;;2.80;99.90;;;;;;5022462;28;20042;-66
2021/12/06 01:09:24;;;;;;;38.17;23.50;;;2.70;99.90;;;;;;5022660;28;20053;-65
2021/12/06 01:11:50;;;;;;;38.45;23.48;;;2.70;99.90;;;;;;5020636;28;20058;-66
2021/12/06 01:14:18;;;;;;;37.92;23.75;;;2.70;99.90;;;;;;5022769;28;20137;-65
2021/12/06 01:16:44;;;;;;;35.40;23.70;;;2.80;99.90;;;;;;5022359;28;20054;-65
2021/12/06 01:19:10;;;;;;;38.47;24.30;;;2.80;99.90;;;;;;5020998;28;20156;-66
2021/12/06 01:24:05;;;;;;;40.72;26.42;;;2.70;99.90;;;;;;5025114;28;20324;-65
2021/12/06 01:29:25;;;;;;;36.60;23.90;;;2.70;99.90;;;;;;5026435;28;20085;-66
2021/12/06 01:32:02;;;;;;;38.03;23.35;;;2.70;99.90;;;;;;5026158;28;20046;-65
2021/12/06 01:39:57;;;;;;;40.72;25.45;;;2.70;99.90;;;;;;5026154;28;20080;-65
2021/12/06 01:42:23;;;;;;;39.50;24.02;;;2.70;99.90;;;;;;5025237;28;20105;-65
2021/12/06 01:44:53;;;;;;;36.00;23.50;;;2.70;99.90;;;;;;5026183;28;20038;-66
2021/12/06 01:47:29;;;;;;;41.13;25.55;;;2.70;99.90;;;;;;5025763;28;20046;-66
2021/12/06 01:50:02;;;;;;;43.35;25.30;;;2.70;99.90;;;;;;5026199;28;20037;-65
2021/12/06 01:52:31;;;;;;;42.10;25.02;;;2.70;99.90;;;;;;5025531;28;20113;-66
2021/12/06 01:54:59;;;;;;;39.80;24.17;;;2.70;99.90;;;;;;5026010;28;20104;-65
2021/12/06 01:57:27;;;;;;;42.40;25.55;;;2.70;99.90;;;;;;5024116;28;20085;-65
2021/12/06 01:59:54;;;;;;;37.60;24.80;;;2.70;99.90;;;;;;5025761;28;20058;-65
2021/12/06 02:02:23;;;;;;;39.15;24.80;;;2.70;99.90;;;;;;5024151;28;20046;-65
2021/12/06 02:04:50;;;;;;;43.15;25.17;;;2.70;99.90;;;;;;5023570;28;20089;-65
2021/12/06 02:07:20;;;;;;;41.50;25.33;;;2.70;99.90;;;;;;5024106;28;20077;-65
2021/12/06 02:09:47;;;;;;;44.53;26.42;;;2.70;99.90;;;;;;5024167;28;20046;-65
2021/12/06 02:12:13;;;;;;;44.17;26.05;;;2.70;99.90;;;;;;5023751;28;20049;-65
2021/12/06 02:17:14;;;;;;;39.40;25.40;;;2.70;99.90;;;;;;5025357;28;20054;-65
2021/12/06 02:19:45;;;;;;;42.75;24.67;;;2.70;99.90;;;;;;5025393;28;20046;-65
2021/12/06 02:22:15;;;;;;;48.35;27.17;;;2.70;99.90;;;;;;5024011;28;20087;-65
2021/12/06 02:24:41;;;;;;;43.67;25.77;;;2.70;99.90;;;;;;5024956;28;20038;-65
2021/12/06 02:27:10;;;;;;;42.50;24.83;;;2.70;99.90;;;;;;5024707;28;20132;-66
2021/12/06 02:29:36;;;;;;;49.92;26.60;;;2.70;99.90;;;;;;5025449;28;20090;-65
2021/12/06 02:32:09;;;;;;;51.40;27.27;;;2.70;99.90;;;;;;5025132;28;20054;-65
2021/12/06 02:34:35;;;;;;;50.53;27.42;;;2.60;99.90;;;;;;5023261;28;20049;-65
2021/12/06 02:37:00;;;;;;;50.90;26.55;;;2.60;99.90;;;;;;5023387;28;20128;-65
2021/12/06 02:39:29;;;;;;;44.53;25.97;;;2.70;99.90;;;;;;5023455;28;20347;-65
2021/12/06 02:41:56;;;;;;;48.47;26.95;;;2.60;99.90;;;;;;5022936;28;20305;-66
2021/12/06 02:44:22;;;;;;;52.53;28.33;;;2.60;99.90;;;;;;5008355;28;20121;-66
2021/12/06 02:46:49;;;;;;;49.70;27.50;;;2.60;99.90;;;;;;5020296;28;20113;-65
2021/12/06 02:49:15;;;;;;;;;;;2.60;99.90;;;;;;5025387;28;20069;-65
2021/12/06 02:51:40;;;;;;;44.90;26.05;;;2.60;99.90;;;;;;5024839;28;19925;-65
2021/12/06 02:54:06;;;;;;;50.55;25.63;;;2.60;99.90;;;;;;5023801;28;20104;-65
2021/12/06 02:56:39;;;;;;;46.28;25.98;;;2.60;99.90;;;;;;5024119;28;20624;-65
2021/12/06 02:59:09;;;;;;;46.90;26.92;;;2.60;99.90;;;;;;5023084;28;20145;-65
2021/12/06 03:01:38;;;;;;;53.75;28.13;;;2.60;99.90;;;;;;5022940;28;20061;-65
2021/12/06 03:04:05;;;;;;;53.05;27.45;;;2.60;99.90;;;;;;5022234;28;20058;-65
2021/12/06 03:06:31;;;;;;;;;;;2.60;99.90;;;;;;5021211;28;20046;-65
2021/12/06 03:09:07;;;;;;;48.22;27.77;;;2.50;99.90;;;;;;5002376;28;19934;-65
2021/12/06 03:11:40;;;;;;;52.70;26.90;;;2.50;99.90;;;;;;5002042;28;20050;-65
2021/12/06 03:14:09;;;;;;;55.63;29.67;;;2.50;99.90;;;;;;5006666;28;20049;-66
2021/12/06 03:16:35;;;;;;;54.80;28.48;;;2.50;99.90;;;;;;5023249;28;20109;-65
2021/12/06 03:19:01;;;;;;;56.05;28.20;;;2.50;99.90;;;;;;5038134;28;20113;-66
2021/12/06 03:21:27;;;;;;;52.55;26.50;;;2.50;99.90;;;;;;5021899;28;20038;-65
2021/12/06 03:23:56;;;;;;;54.35;28.45;;;2.50;99.90;;;;;;5023169;28;20155;-65
2021/12/06 03:26:23;;;;;;;52.05;28.40;;;2.50;99.90;;;;;;5021386;28;20050;-65
2021/12/06 03:28:49;;;;;;;52.25;28.05;;;2.50;99.90;;;;;;5021465;28;20046;-65
2021/12/06 03:31:16;;;;;;;55.75;29.75;;;2.50;99.90;;;;;;5023247;28;20121;-65
2021/12/06 03:33:43;;;;;;;;;;;2.50;99.90;;;;;;5023722;28;20113;-65
2021/12/06 03:36:11;;;;;;;58.33;28.88;;;2.50;99.90;;;;;;5023113;28;19921;-66
2021/12/06 03:38:38;;;;;;;54.20;28.25;;;2.50;99.90;;;;;;5022847;28;20144;-65
2021/12/06 03:41:06;;;;;;;50.47;26.90;;;2.50;99.90;;;;;;5022606;28;20041;-66
2021/12/06 03:43:33;;;;;;;54.53;29.65;;;2.60;99.90;;;;;;5022597;28;20478;-65
2021/12/06 03:45:58;;;;;;;56.05;29.20;;;2.60;99.90;;;;;;5021995;28;20046;-65
2021/12/06 03:48:24;;;;;;;55.50;28.42;;;2.60;99.90;;;;;;5023071;28;20041;-65
2021/12/06 03:50:50;;;;;;;54.83;28.07;;;2.60;99.90;;;;;;5022633;28;20137;-65
2021/12/06 03:53:17;;;;;;;54.72;29.15;;;2.60;99.90;;;;;;5022843;28;20049;-65
2021/12/06 03:55:44;;;;;;;53.35;28.35;;;2.60;99.90;;;;;;5020849;28;20078;-65
2021/12/06 03:58:10;;;;;;;54.10;29.02;;;2.60;99.90;;;;;;5022675;28;20374;-65
2021/12/06 04:00:36;;;;;;;55.20;29.20;;;2.60;99.90;;;;;;5021204;28;20045;-65
2021/12/06 04:03:02;;;;;;;;;;;2.70;99.90;;;;;;4894239;28;3691284;-65
2021/12/06 04:05:29;;;;;;;58.08;29.02;;;2.60;99.90;;;;;;5021881;28;19956;-65
2021/12/06 04:07:55;;;;;;;56.80;28.77;;;2.60;99.90;;;;;;5023502;28;20046;-66
2021/12/06 04:10:20;;;;;;;50.75;28.55;;;2.60;99.90;;;;;;5021952;28;20073;-65
2021/12/06 04:12:46;;;;;;;52.78;28.40;;;2.60;99.90;;;;;;5021715;28;20057;-66
2021/12/06 04:15:13;;;;;;;63.53;29.60;;;2.60;99.90;;;;;;5022031;28;20081;-65
2021/12/06 04:17:40;;;;;;;58.35;29.63;;;2.60;99.90;;;;;;5023291;28;20045;-65
2021/12/06 04:20:08;;;;;;;53.88;28.27;;;2.70;99.90;;;;;;5021707;28;20149;-65
2021/12/06 04:22:35;;;;;;;55.85;28.00;;;2.70;99.90;;;;;;5022846;28;20481;-65
2021/12/06 04:25:02;;;;;;;55.47;28.33;;;2.70;99.90;;;;;;5023187;28;20034;-66
2021/12/06 04:27:29;;;;;;;54.38;28.40;;;2.70;99.90;;;;;;5021619;28;20402;-66
2021/12/06 04:29:55;;;;;;;59.15;29.83;;;2.70;99.90;;;;;;5021842;28;20060;-66
2021/12/06 04:32:22;;;;;;;57.92;29.10;;;2.70;99.90;;;;;;5022848;28;20034;-65
2021/12/06 04:34:48;;;;;;;51.33;28.52;;;2.70;99.90;;;;;;5021812;28;20046;-66
2021/12/06 04:37:14;;;;;;;56.85;28.73;;;2.80;99.90;;;;;;5037821;28;20041;-65
2021/12/06 04:39:40;;;;;;;53.97;28.60;;;2.70;99.90;;;;;;5023069;28;20057;-65
2021/12/06 04:42:12;;;;;;;53.70;28.30;;;2.80;99.90;;;;;;5021228;28;20046;-65
2021/12/06 04:44:38;;;;;;;55.17;28.83;;;2.80;99.90;;;;;;5022712;28;20042;-65
2021/12/06 04:47:04;;;;;;;58.10;29.50;;;2.80;99.90;;;;;;5004350;28;20073;-65
2021/12/06 04:49:30;;;;;;;59.40;28.80;;;2.80;99.90;;;;;;5023218;28;20061;-65
2021/12/06 04:51:58;;;;;;;58.83;29.37;;;2.80;99.90;;;;;;5022887;28;20046;-65
2021/12/06 04:54:31;;;;;;;56.33;29.00;;;2.80;99.90;;;;;;5021324;28;20050;-65
2021/12/06 04:57:11;;;;;;;54.03;28.65;;;2.80;99.90;;;;;;4998072;28;20086;-65
2021/12/06 04:59:44;;;;;;;54.20;28.50;;;2.80;99.90;;;;;;5001445;28;20047;-66
2021/12/06 05:02:17;;;;;;;53.35;27.38;;;2.80;99.90;;;;;;5019266;28;20053;-65
2021/12/06 05:04:47;;;;;;;52.80;27.60;;;2.90;99.90;;;;;;5033899;28;20866;-65
2021/12/06 05:07:25;;;;;;;53.22;26.10;;;2.80;99.90;;;;;;5020733;28;20045;-65
2021/12/06 05:09:51;;;;;;;58.92;28.15;;;2.90;99.90;;;;;;5022786;28;20095;-66
2021/12/06 05:12:19;;;;;;;63.50;28.92;;;2.80;99.90;;;;;;5037252;28;20084;-65
2021/12/06 05:14:45;;;;;;;55.90;29.63;;;2.80;99.90;;;;;;5022494;28;20049;-65
2021/12/06 05:17:11;;;;;;;63.97;29.48;;;2.80;99.90;;;;;;5021068;28;20042;-66
2021/12/06 05:19:37;;;;;;;58.60;27.63;;;2.80;99.90;;;;;;5022453;28;20050;-65
2021/12/06 05:22:04;;;;;;;62.00;28.00;;;2.80;99.90;;;;;;5022523;28;20080;-66
2021/12/06 05:24:30;;;;;;;61.25;29.83;;;2.80;99.90;;;;;;5022719;28;20042;-65
2021/12/06 05:26:56;;;;;;;66.87;30.77;;;2.70;99.90;;;;;;5053614;28;20137;-65
2021/12/06 05:29:26;;;;;;;68.70;30.98;;;2.70;99.90;;;;;;5022413;28;20061;-65
2021/12/06 05:31:56;;;;;;;62.13;29.20;;;2.70;99.90;;;;;;5022639;28;20090;-66
2021/12/06 05:34:30;;;;;;;66.72;30.02;;;2.70;99.90;;;;;;4988596;28;20106;-65
2021/12/06 05:36:57;;;;;;;58.70;29.35;;;2.70;99.90;;;;;;5020701;28;20232;-65
2021/12/06 05:39:23;;;;;;;71.55;30.25;;;2.70;99.90;;;;;;5020605;28;20133;-65
2021/12/06 05:41:49;;;;;;;59.75;29.77;;;2.70;99.90;;;;;;5020615;28;20065;-65
2021/12/06 05:44:14;;;;;;;60.30;28.20;;;2.70;99.90;;;;;;5020851;28;20046;-66
2021/12/06 05:46:40;;;;;;;61.83;28.67;;;2.70;99.90;;;;;;5022154;28;20121;-66
2021/12/06 05:49:06;;;;;;;60.00;28.70;;;2.70;99.90;;;;;;5022411;28;20381;-66
2021/12/06 05:51:31;;;;;;;54.53;27.43;;;2.70;99.90;;;;;;5003704;28;20368;-66
2021/12/06 05:53:58;;;;;;;57.87;27.17;;;2.70;99.90;;;;;;5022473;28;20096;-66
2021/12/06 05:56:23;;;;;;;56.20;27.25;;;2.70;99.90;;;;;;5022136;28;20045;-65
2021/12/06 05:58:49;;;;;;;57.47;27.67;;;2.80;99.90;;;;;;5022254;28;20042;-65
2021/12/06 06:01:15;;;;;;;60.88;27.63;;;2.70;99.90;;;;;;5020456;28;20296;-66
2021/12/06 06:03:41;;;;;;;63.20;28.20;;;2.80;99.90;;;;;;5021919;28;20050;-66
2021/12/06 06:06:07;;;;;;;61.10;27.80;;;2.70;99.90;;;;;;5022173;28;20046;-65
2021/12/06 06:08:32;;;;;;;56.95;28.40;;;2.70;99.90;;;;;;5022535;28;20433;-66
2021/12/06 06:10:58;;;;;;;66.07;30.57;;;2.70;99.90;;;;;;5023909;28;20057;-65
2021/12/06 06:13:24;;;;;;;69.55;29.13;;;2.70;99.90;;;;;;5024022;28;20065;-66
2021/12/06 06:15:51;;;;;;;67.77;28.60;;;2.60;99.90;;;;;;5024099;28;20477;-66
2021/12/06 06:18:18;;;;;;;64.22;29.98;;;2.70;99.90;;;;;;5005787;28;20125;-66
2021/12/06 06:20:52;;;;;;;65.15;29.55;;;2.60;99.90;;;;;;5007787;28;20050;-66
2021/12/06 06:23:18;;;;;;;64.72;29.08;;;2.60;99.90;;;;;;5040048;28;20097;-66
2021/12/06 06:25:44;;;;;;;66.10;29.70;;;2.60;99.90;;;;;;5025371;28;20114;-65
2021/12/06 06:28:10;;;;;;;64.45;28.85;;;2.60;99.90;;;;;;5025171;28;20053;-66
2021/12/06 06:30:36;;;;;;;63.83;28.60;;;2.60;99.90;;;;;;5023738;28;20084;-65
2021/12/06 06:33:03;;;;;;;60.65;28.52;;;2.60;99.90;;;;;;5025265;28;20449;-65
2021/12/06 06:35:30;;;;;;;57.83;27.00;;;2.60;99.90;;;;;;5025235;28;20038;-65
2021/12/06 06:37:56;;;;;;;57.28;27.23;;;2.60;99.90;;;;;;5025043;28;20046;-65
2021/12/06 06:40:27;;;;;;;63.65;29.05;;;2.60;99.90;;;;;;5024894;28;20041;-66
2021/12/06 06:42:53;;;;;;;67.80;30.43;;;2.60;99.90;;;;;;5022925;28;20152;-65
2021/12/06 06:45:21;;;;;;;63.45;28.73;;;2.60;99.90;;;;;;5023908;28;20045;-65
2021/12/06 06:47:47;;;;;;;74.03;29.60;;;2.50;99.90;;;;;;5025057;28;20046;-65
2021/12/06 06:50:13;;;;;;;62.78;27.42;;;2.60;99.90;;;;;;5025277;28;20049;-66
2021/12/06 06:52:39;;;;;;;52.70;26.33;;;2.50;99.90;;;;;;5023604;28;20056;-65
2021/12/06 06:55:07;;;;;;;53.08;27.17;;;2.60;99.90;;;;;;5022813;28;20050;-66
2021/12/06 06:57:33;;;;;;;60.88;27.02;;;2.60;99.90;;;;;;5024732;28;20053;-66
2021/12/06 06:59:59;;;;;;;55.45;25.75;;;2.50;99.90;;;;;;5025130;28;20041;-66
2021/12/06 07:02:24;;;;;;;51.40;24.38;;;2.50;99.90;;;;;;5037515;28;20096;-65
2021/12/06 07:04:50;;;;;;;51.85;25.40;;;2.50;99.90;;;;;;5024688;28;20050;-66
2021/12/06 07:07:16;;;;;;;58.10;26.63;;;2.50;99.90;;;;;;5024525;28;20121;-67
2021/12/06 07:09:43;;;;;;;50.63;25.02;;;2.50;99.90;;;;;;5024830;28;20045;-65
2021/12/06 07:12:17;;;;;;;56.08;26.08;;;2.50;99.90;;;;;;5024870;28;20073;-66
2021/12/06 07:14:44;;;;;;;63.42;26.98;;;2.50;99.90;;;;;;5022883;28;20069;-65
2021/12/06 07:17:11;;;;;;;59.13;26.40;;;2.60;99.90;;;;;;5012162;28;20054;-65
2021/12/06 07:19:36;;;;;;;60.70;27.27;;;2.60;99.90;;;;;;5016695;28;20053;-65
2021/12/06 07:22:04;;;;;;;55.70;25.75;;;2.60;99.90;;;;;;5023032;28;20042;-66
2021/12/06 07:24:29;;;;;;;58.08;27.75;;;2.60;99.90;;;;;;5024121;28;20042;-66
2021/12/06 07:26:57;;;;;;;55.38;27.35;;;2.50;99.90;;;;;;5021627;28;20099;-66
2021/12/06 07:29:23;;;;;;;59.00;26.38;;;2.60;99.90;;;;;;5022335;28;20098;-66
2021/12/06 07:31:49;;;;;;;66.00;29.70;;;2.50;99.90;;;;;;5021721;28;20151;-65
2021/12/06 07:34:14;;;;;;;65.45;27.95;;;2.50;99.90;;;;;;5022199;28;20054;-66
2021/12/06 07:36:40;;;;;;;73.10;29.37;;;2.50;99.90;;;;;;5036901;28;20040;-66
2021/12/06 07:39:06;;;;;;;73.87;31.27;;;2.50;99.90;;;;;;5022047;28;20053;-66
2021/12/06 07:41:32;;;;;;;64.95;28.30;;;2.50;99.90;;;;;;5023657;28;20498;-65
2021/12/06 07:43:59;;;;;;;71.88;30.13;;;2.50;99.90;;;;;;5021958;28;20054;-65
2021/12/06 07:46:25;;;;;;;79.78;32.63;;;2.50;99.90;;;;;;5018366;28;20056;-66
2021/12/06 07:48:54;;;;;;;74.90;31.20;;;2.50;99.90;;;;;;5002653;28;20073;-66
2021/12/06 07:51:22;;;;;;;69.32;31.02;;;2.50;99.90;;;;;;5018534;28;20075;-66
2021/12/06 07:53:49;;;;;;;70.13;30.17;;;2.50;99.90;;;;;;5002841;28;20109;-66
2021/12/06 07:56:15;;;;;;;67.03;29.40;;;2.50;99.90;;;;;;5005009;28;20038;-66
2021/12/06 07:58:40;;;;;;;60.47;28.10;;;2.60;99.90;;;;;;5004017;28;20030;-66
2021/12/06 08:01:06;;;;;;;69.00;28.40;;;2.50;99.90;;;;;;5003944;28;20058;-66
2021/12/06 08:03:33;;;;;;;69.18;29.17;;;2.50;99.90;;;;;;5003953;28;20066;-66
2021/12/06 08:05:59;;;;;;;;;;;2.50;99.90;;;;;;5002894;28;20513;-66
2021/12/06 08:08:30;;;;;;;67.53;28.60;;;2.50;99.90;;;;;;5019346;28;19975;-66
2021/12/06 08:11:09;;;;;;;73.15;30.77;;;2.50;99.90;;;;;;5022064;28;20054;-66
2021/12/06 08:13:36;;;;;;;68.03;30.02;;;2.50;99.90;;;;;;5021589;28;20050;-66
2021/12/06 08:16:09;;;;;;;74.32;30.33;;;2.50;99.90;;;;;;5023461;28;20042;-66
2021/12/06 08:18:35;;;;;;;72.03;30.70;;;2.50;99.90;;;;;;5023059;28;20041;-66
2021/12/06 08:21:02;;;;;;;66.82;31.23;;;2.50;99.90;;;;;;5021825;28;20056;-66
2021/12/06 08:23:28;;;;;;;64.25;28.13;;;2.60;99.90;;;;;;5021818;28;20050;-66
2021/12/06 08:25:55;;;;;;;75.47;30.52;;;2.50;99.90;;;;;;5023174;28;20045;-66
2021/12/06 08:28:23;;;;;;;78.05;30.95;;;2.50;99.90;;;;;;5051584;28;20092;-65
2021/12/06 08:30:50;;;;;;;72.25;30.40;;;2.60;99.90;;;;;;5023327;28;20120;-66
2021/12/06 08:33:17;;;;;;;67.88;27.63;;;2.60;99.90;;;;;;5022981;28;20111;-65
2021/12/06 08:35:46;;;;;;;74.35;31.38;;;2.60;99.90;;;;;;5023191;28;20060;-65
2021/12/06 08:38:14;;;;;;;72.20;29.20;;;2.60;99.90;;;;;;5023187;28;20105;-65
2021/12/06 08:40:42;;;;;;;71.47;29.48;;;2.60;99.90;;;;;;5019845;28;20493;-65
2021/12/06 08:43:09;;;;;;;72.03;29.65;;;2.60;99.90;;;;;;5008894;28;20184;-65
2021/12/06 08:45:35;;;;;;;64.15;28.10;;;2.60;99.90;;;;;;5003198;28;20102;-66
2021/12/06 08:48:01;;;;;;;;;;;2.60;99.90;;;;;;5020070;28;20060;-65
2021/12/06 08:50:29;;;;;;;70.18;28.77;;;2.50;99.90;;;;;;5037702;28;19961;-66
2021/12/06 08:52:55;;;;;;;70.30;28.90;;;2.60;99.90;;;;;;5037936;28;20050;-66
2021/12/06 08:55:23;;;;;;;75.75;30.27;;;2.60;99.90;;;;;;5038372;28;20121;-66
2021/12/06 08:57:50;;;;;;;79.47;30.80;;;2.60;99.90;;;;;;5002983;28;20122;-66
2021/12/06 09:00:23;;;;;;;70.75;29.13;;;2.70;99.90;;;;;;5007238;28;20045;-65
2021/12/06 09:02:49;;;;;;;67.90;29.20;;;2.70;99.90;;;;;;5022688;28;20083;-65
2021/12/06 09:05:15;;;;;;;68.82;28.20;;;2.70;99.90;;;;;;5021142;28;20065;-66
2021/12/06 09:07:41;;;;;;;70.97;31.33;;;2.70;99.90;;;;;;5021394;28;20046;-65
2021/12/06 09:10:10;;;;;;;71.65;30.33;;;2.80;99.90;;;;;;5021414;28;20046;-65
2021/12/06 09:12:36;;;;;;;71.47;28.95;;;2.80;99.90;;;;;;5004173;28;20041;-65
2021/12/06 09:15:08;;;;;;;62.97;29.13;;;2.80;99.90;;;;;;5021304;28;20058;-66
2021/12/06 09:17:34;;;;;;;62.35;27.73;;;2.80;99.90;;;;;;5021192;28;20297;-66
2021/12/06 09:20:00;;;;;;;64.35;29.05;;;2.80;99.90;;;;;;5022638;28;20261;-66
2021/12/06 09:22:26;;;;;;;62.28;27.92;;;2.90;99.90;;;;;;5037451;28;20045;-65
2021/12/06 09:24:51;;;;;;;61.95;28.88;;;2.90;99.90;;;;;;5022530;28;20049;-65
2021/12/06 09:27:18;;;;;;;60.47;27.92;;;2.90;99.90;;;;;;5022029;28;20041;-66
2021/12/06 09:29:44;;;;;;;61.05;26.88;;;3.00;99.90;;;;;;5022691;28;20049;-66
2021/12/06 09:32:12;;;;;;;58.38;26.98;;;3.00;99.90;;;;;;5021919;28;20097;-65
2021/12/06 09:34:43;;;;;;;53.92;25.75;;;3.00;99.90;;;;;;5021034;28;20037;-66
2021/12/06 09:37:09;;;;;;;56.65;26.40;;;3.00;99.90;;;;;;5021086;28;20058;-66
2021/12/06 09:39:36;;;;;;;53.13;24.85;;;3.00;99.90;;;;;;5022324;28;20069;-66
2021/12/06 09:42:03;;;;;;;55.65;25.23;;;3.00;99.90;;;;;;5020428;28;20046;-66
2021/12/06 09:44:29;;;;;;;54.35;26.65;;;3.10;99.90;;;;;;5022055;28;20073;-66
2021/12/06 09:46:55;;;;;;;49.97;24.00;;;3.10;99.90;;;;;;5024653;28;20173;-66
2021/12/06 09:49:22;;;;;;;56.85;25.55;;;3.00;99.90;;;;;;5007983;28;20042;-65
2021/12/06 09:51:54;;;;;;;57.97;26.73;;;3.10;99.90;;;;;;5008167;28;20046;-65
2021/12/06 09:54:26;;;;;;;54.72;25.00;;;3.10;99.90;;;;;;5025881;28;20120;-66
2021/12/06 09:56:53;;;;;;;46.25;24.30;;;3.10;99.90;;;;;;5023993;28;20473;-65
2021/12/06 09:59:23;;;;;;;47.55;24.17;;;3.10;99.90;;;;;;5026309;28;20141;-66
2021/12/06 10:02:02;;;;;;;49.05;24.45;;;3.10;99.90;;;;;;5025717;28;20046;-66
2021/12/06 10:04:30;;;;;;;45.00;22.75;;;3.10;99.90;;;;;;5023808;28;20054;-65
2021/12/06 10:06:57;;;;;;;51.63;24.30;;;3.10;99.90;;;;;;5025258;28;20054;-65
2021/12/06 10:09:23;;;;;;;45.78;23.13;;;3.20;99.90;;;;;;5024417;28;20117;-66
2021/12/06 10:11:50;;;;;;;;;;;3.20;99.90;;;;;;5024506;28;20081;-66
2021/12/06 10:14:16;;;;;;;44.65;20.95;;;3.10;99.90;;;;;;5025816;28;19978;-65
2021/12/06 10:16:42;;;;;;;48.83;22.50;;;3.10;99.90;;;;;;5016803;28;20062;-65
2021/12/06 10:19:08;;;;;;;;;;;3.10;99.90;;;;;;5008369;28;20050;-66
2021/12/06 10:21:36;;;;;;;41.95;21.08;;;3.10;99.90;;;;;;5040385;28;19932;-66
2021/12/06 10:24:01;;;;;;;39.00;20.35;;;3.00;99.90;;;;;;5025794;28;20045;-66
2021/12/06 10:26:30;;;;;;;41.42;20.50;;;3.10;99.90;;;;;;5025012;28;20048;-66
2021/12/06 10:29:05;;;;;;;40.80;21.95;;;3.10;99.90;;;;;;5023824;28;20046;-66
2021/12/06 10:31:38;;;;;;;43.15;21.65;;;3.10;99.90;;;;;;5025367;28;20090;-65
2021/12/06 10:34:04;;;;;;;43.00;21.20;;;3.10;99.90;;;;;;5025069;28;20061;-66
2021/12/06 10:36:30;;;;;;;41.95;20.38;;;3.10;99.90;;;;;;5023701;28;20041;-66
2021/12/06 10:39:04;;;;;;;42.75;21.02;;;3.10;99.90;;;;;;5025267;28;20068;-65
2021/12/06 10:41:32;;;;;;;42.42;21.00;;;3.20;99.90;;;;;;5023614;28;20098;-65
2021/12/06 10:44:04;;;;;;;42.97;20.38;;;3.20;99.90;;;;;;5023413;28;20052;-66
2021/12/06 10:46:33;;;;;;;42.28;21.27;;;3.20;99.90;;;;;;5023308;28;20131;-66
2021/12/06 10:49:03;;;;;;;40.95;21.30;;;3.20;99.90;;;;;;4987416;28;20052;-66
2021/12/06 10:51:30;;;;;;;42.40;21.50;;;3.20;99.90;;;;;;5003771;28;20132;-65
2021/12/06 10:54:04;;;;;;;43.17;21.25;;;3.20;99.90;;;;;;5004060;28;20113;-65
2021/12/06 10:56:40;;;;;;;40.15;19.98;;;3.20;99.90;;;;;;5004876;28;20057;-65
2021/12/06 10:59:25;;;;;;;38.80;20.03;;;3.30;99.90;;;;;;5021098;28;20098;-64
2021/12/06 11:01:55;;;;;;;38.95;20.35;;;3.30;99.90;;;;;;5024516;28;20113;-65
2021/12/06 11:04:25;;;;;;;39.05;19.70;;;3.20;99.90;;;;;;5022505;28;20143;-65
2021/12/06 11:06:58;;;;;;;44.03;22.45;;;3.30;99.90;;;;;;5022962;28;20054;-65
2021/12/06 11:09:26;;;;;;;42.45;20.38;;;3.30;99.90;;;;;;5024592;28;20397;-64
2021/12/06 11:11:58;;;;;;;41.95;19.08;;;3.20;99.90;;;;;;5039397;28;20034;-64
2021/12/06 11:14:43;;;;;;;38.42;20.42;;;3.30;99.90;;;;;;5024330;28;20042;-65
2021/12/06 11:17:18;;;;;;;38.88;20.17;;;3.30;99.90;;;;;;5022893;28;20090;-65
2021/12/06 11:19:44;;;;;;;38.53;20.27;;;3.30;99.90;;;;;;5023813;28;20045;-65
2021/12/06 11:22:20;;;;;;;41.47;20.13;;;3.30;99.90;;;;;;5022670;28;20057;-64
2021/12/06 11:24:51;;;;;;;38.63;19.77;;;3.30;99.90;;;;;;5024347;28;20042;-67
2021/12/06 11:27:27;;;;;;;39.58;20.75;;;3.30;99.90;;;;;;5024184;28;20155;-64
2021/12/06 11:30:03;;;;;;;37.95;20.30;;;3.30;99.90;;;;;;5022634;28;20046;-65
2021/12/06 11:32:44;;;;;;;41.90;21.73;;;3.30;99.90;;;;;;5006297;28;20061;-65
2021/12/06 11:35:16;;;;;;;40.33;21.77;;;3.30;99.90;;;;;;5023980;28;20064;-65
2021/12/06 11:37:55;;;;;;;43.85;22.67;;;3.30;99.90;;;;;;5022674;28;20061;-65
2021/12/06 11:40:28;;;;;;;53.50;24.33;;;3.30;99.90;;;;;;5023837;28;20038;-64
2021/12/06 11:43:07;;;;;;;69.03;26.25;;;3.30;99.90;;;;;;5021836;28;20050;-64
2021/12/06 11:45:52;;;;;;;50.35;26.05;;;3.30;99.90;;;;;;5022558;28;20117;-65
2021/12/06 11:48:35;;;;;;;50.60;25.63;;;3.30;99.90;;;;;;5004157;28;20056;-65
2021/12/06 11:51:08;;;;;;;55.92;27.75;;;3.30;99.90;;;;;;5010935;28;20100;-65
2021/12/06 11:53:36;;;;;;;53.33;27.35;;;3.40;99.90;;;;;;5038938;28;20105;-65
2021/12/06 11:56:10;;;;;;;59.47;30.38;;;3.40;99.90;;;;;;5022554;28;20038;-65
2021/12/06 11:58:43;;;;;;;51.38;26.17;;;3.40;99.90;;;;;;5022242;28;20497;-65
2021/12/06 12:01:14;;;;;;;44.00;23.17;;;3.40;99.90;;;;;;5038727;28;20144;-65
2021/12/06 12:03:42;;;;;;;40.80;23.10;;;3.50;99.90;;;;;;5038907;28;20085;-66
2021/12/06 12:06:26;;;;;;;45.03;24.23;;;3.50;99.90;;;;;;5021830;28;20069;-66
2021/12/06 12:09:04;;;;;;;43.83;21.88;;;3.50;99.90;;;;;;5023433;28;20045;-66
2021/12/06 12:11:30;;;;;;;39.42;21.55;;;3.60;99.90;;;;;;5021786;28;20080;-65
2021/12/06 12:13:57;;;;;;;42.70;21.70;;;3.60;99.90;;;;;;5023233;28;20038;-65
2021/12/06 12:16:24;;;;;;;39.65;20.55;;;3.50;99.90;;;;;;5005476;28;20042;-65
2021/12/06 12:18:50;;;;;;;38.97;20.17;;;3.60;99.90;;;;;;5023609;28;20102;-65
2021/12/06 12:21:16;;;;;;;40.67;20.77;;;3.60;99.90;;;;;;5021856;28;20165;-65
2021/12/06 12:23:42;;;;;;;35.47;19.55;;;3.60;99.90;;;;;;5045272;28;20552;-65
2021/12/06 12:26:13;;;;;;;36.60;20.17;;;3.60;99.90;;;;;;5021794;28;20049;-65
2021/12/06 12:28:59;;;;;;;40.65;19.85;;;3.60;99.90;;;;;;5038296;28;20485;-65
2021/12/06 12:31:28;;;;;;;34.72;18.88;;;3.60;99.90;;;;;;5038767;28;20062;-66
2021/12/06 12:33:55;;;;;;;35.42;19.10;;;3.60;99.90;;;;;;5021440;28;20088;-65
2021/12/06 12:36:23;;;;;;;33.65;18.15;;;3.60;99.90;;;;;;5022974;28;20629;-65
2021/12/06 12:38:54;;;;;;;32.55;18.45;;;3.60;99.90;;;;;;5023082;28;20056;-65
2021/12/06 12:41:21;;;;;;;34.15;17.55;;;3.60;99.90;;;;;;5022807;28;20152;-65
2021/12/06 12:44:02;;;;;;;28.83;17.65;;;3.60;99.90;;;;;;5021092;28;20473;-65
2021/12/06 12:46:37;;;;;;;34.90;17.45;;;3.60;99.90;;;;;;5021539;28;20041;-65
2021/12/06 12:49:09;;;;;;;30.63;18.27;;;3.60;99.90;;;;;;5021516;28;20049;-65
2021/12/06 12:51:45;;;;;;;31.90;18.95;;;3.60;99.90;;;;;;5037779;28;20050;-65
2021/12/06 12:54:25;;;;;;;33.53;18.63;;;3.60;99.90;;;;;;5020953;28;20532;-65
2021/12/06 12:56:59;;;;;;;35.88;19.98;;;3.60;99.90;;;;;;5003050;28;20478;-66